sensor_id;sensor_type;location;lat;lon;timestamp;pressure;altitude;pressure_sealevel;temperature;humidity
45872;BME280;32333;55.844;-3.210;2023-08-08T00:01:51;99283.86;;;9.48;100.00
45872;BME280;32333;55.844;-3.210;2023-08-08T00:04:18;99282.67;;;9.95;100.00
45872;BME280;32333;55.844;-3.210;2023-08-08T00:06:46;99291.53;;;9.13;100.00
45872;BME280;32333;55.844;-3.210;2023-08-08T00:09:14;99292.67;;;9.55;100.00
45872;BME280;32333;55.844;-3.210;2023-08-08T00:11:41;99289.71;;;9.14;100.00
45872;BME280;32333;55.844;-3.210;2023-08-08T00:14:36;99292.59;;;8.84;100.00
45872;BME280;32333;55.844;-3.210;2023-08-08T00:17:03;99291.53;;;9.70;100.00
45872;BME280;32333;55.844;-3.210;2023-08-08T00:19:31;99293.95;;;8.90;100.00
45872;BME280;32333;55.844;-3.210;2023-08-08T00:22:00;99297.62;;;9.05;100.00
45872;BME280;32333;55.844;-3.210;2023-08-08T00:24:28;99291.47;;;9.13;100.00
45872;BME280;32333;55.844;-3.210;2023-08-08T00:26:55;99289.81;;;9.04;100.00
45872;BME280;32333;55.844;-3.210;2023-08-08T00:29:23;99290.60;;;8.93;100.00
45872;BME280;32333;55.844;-3.210;2023-08-08T00:31:51;99291.07;;;8.62;100.00
45872;BME280;32333;55.844;-3.210;2023-08-08T00:34:18;99291.56;;;9.19;100.00
45872;BME280;32333;55.844;-3.210;2023-08-08T00:36:46;99292.61;;;9.12;100.00
45872;BME280;32333;55.844;-3.210;2023-08-08T00:39:14;99288.99;;;8.69;100.00
45872;BME280;32333;55.844;-3.210;2023-08-08T00:41:42;99287.63;;;9.22;100.00
45872;BME280;32333;55.844;-3.210;2023-08-08T00:44:36;99291.00;;;8.95;100.00
45872;BME280;32333;55.844;-3.210;2023-08-08T00:47:03;99287.34;;;9.14;100.00
45872;BME280;32333;55.844;-3.210;2023-08-08T00:49:31;99277.03;;;8.66;100.00
45872;BME280;32333;55.844;-3.210;2023-08-08T00:51:59;99270.11;;;8.51;100.00
45872;BME280;32333;55.844;-3.210;2023-08-08T00:54:27;99272.86;;;8.36;100.00
45872;BME280;32333;55.844;-3.210;2023-08-08T00:56:54;99264.84;;;8.95;100.00
45872;BME280;32333;55.844;-3.210;2023-08-08T00:59:23;99269.28;;;8.90;100.00
45872;BME280;32333;55.844;-3.210;2023-08-08T01:01:51;99271.51;;;9.59;100.00
45872;BME280;32333;55.844;-3.210;2023-08-08T01:04:18;99270.16;;;9.12;100.00
45872;BME280;32333;55.844;-3.210;2023-08-08T01:06:54;99268.26;;;8.86;100.00
45872;BME280;32333;55.844;-3.210;2023-08-08T01:09:32;99265.74;;;9.55;100.00
45872;BME280;32333;55.844;-3.210;2023-08-08T01:14:36;99272.33;;;9.22;100.00
45872;BME280;32333;55.844;-3.210;2023-08-08T01:17:04;99273.71;;;9.50;100.00
45872;BME280;32333;55.844;-3.210;2023-08-08T01:19:32;99269.43;;;9.38;100.00
45872;BME280;32333;55.844;-3.210;2023-08-08T01:22:04;99269.16;;;8.79;100.00
45872;BME280;32333;55.844;-3.210;2023-08-08T01:24:32;99267.55;;;8.77;100.00
45872;BME280;32333;55.844;-3.210;2023-08-08T01:27:00;99258.89;;;9.00;100.00
45872;BME280;32333;55.844;-3.210;2023-08-08T01:29:29;99258.52;;;8.94;100.00
45872;BME280;32333;55.844;-3.210;2023-08-08T01:31:56;99260.00;;;9.08;100.00
45872;BME280;32333;55.844;-3.210;2023-08-08T01:34:23;99255.38;;;9.32;100.00
45872;BME280;32333;55.844;-3.210;2023-08-08T01:36:56;99259.99;;;8.52;100.00
45872;BME280;32333;55.844;-3.210;2023-08-08T01:39:27;99256.27;;;8.63;100.00
45872;BME280;32333;55.844;-3.210;2023-08-08T01:41:56;99250.80;;;8.40;100.00
45872;BME280;32333;55.844;-3.210;2023-08-08T01:44:36;99256.41;;;8.83;100.00
45872;BME280;32333;55.844;-3.210;2023-08-08T01:47:04;99256.39;;;8.16;100.00
45872;BME280;32333;55.844;-3.210;2023-08-08T01:49:33;99253.96;;;9.28;100.00
45872;BME280;32333;55.844;-3.210;2023-08-08T01:52:00;99259.65;;;9.06;100.00
45872;BME280;32333;55.844;-3.210;2023-08-08T01:54:27;99256.00;;;9.13;100.00
45872;BME280;32333;55.844;-3.210;2023-08-08T01:56:55;99257.78;;;9.66;100.00
45872;BME280;32333;55.844;-3.210;2023-08-08T01:59:23;99259.92;;;8.96;100.00
45872;BME280;32333;55.844;-3.210;2023-08-08T02:01:50;99255.46;;;9.03;100.00
45872;BME280;32333;55.844;-3.210;2023-08-08T02:04:18;99255.70;;;8.57;100.00
45872;BME280;32333;55.844;-3.210;2023-08-08T02:06:45;99254.85;;;8.92;100.00
45872;BME280;32333;55.844;-3.210;2023-08-08T02:09:13;99254.66;;;7.88;100.00
45872;BME280;32333;55.844;-3.210;2023-08-08T02:11:40;99258.17;;;8.81;100.00
45872;BME280;32333;55.844;-3.210;2023-08-08T02:14:35;99263.67;;;9.00;100.00
45872;BME280;32333;55.844;-3.210;2023-08-08T02:17:03;99259.83;;;8.59;100.00
45872;BME280;32333;55.844;-3.210;2023-08-08T02:19:31;99261.78;;;9.04;100.00
45872;BME280;32333;55.844;-3.210;2023-08-08T02:21:59;99268.87;;;8.49;100.00
45872;BME280;32333;55.844;-3.210;2023-08-08T02:24:27;99265.06;;;9.46;100.00
45872;BME280;32333;55.844;-3.210;2023-08-08T02:26:54;99271.41;;;9.02;100.00
45872;BME280;32333;55.844;-3.210;2023-08-08T02:29:22;99270.28;;;8.35;100.00
45872;BME280;32333;55.844;-3.210;2023-08-08T02:31:50;99272.95;;;8.77;100.00
45872;BME280;32333;55.844;-3.210;2023-08-08T02:34:17;99268.64;;;8.77;100.00
45872;BME280;32333;55.844;-3.210;2023-08-08T02:36:44;99264.34;;;8.01;100.00
45872;BME280;32333;55.844;-3.210;2023-08-08T02:39:12;99262.65;;;7.94;100.00
45872;BME280;32333;55.844;-3.210;2023-08-08T02:41:39;99263.09;;;8.88;100.00
45872;BME280;32333;55.844;-3.210;2023-08-08T02:44:35;99266.90;;;8.70;100.00
45872;BME280;32333;55.844;-3.210;2023-08-08T02:47:04;99267.55;;;8.66;100.00
45872;BME280;32333;55.844;-3.210;2023-08-08T02:49:32;99266.86;;;8.78;100.00
45872;BME280;32333;55.844;-3.210;2023-08-08T02:51:59;99267.67;;;9.54;100.00
45872;BME280;32333;55.844;-3.210;2023-08-08T02:54:27;99262.33;;;9.50;100.00
45872;BME280;32333;55.844;-3.210;2023-08-08T02:56:54;99256.81;;;8.86;100.00
45872;BME280;32333;55.844;-3.210;2023-08-08T02:59:22;99259.88;;;8.76;100.00
45872;BME280;32333;55.844;-3.210;2023-08-08T03:01:50;99251.80;;;9.91;100.00
45872;BME280;32333;55.844;-3.210;2023-08-08T03:04:17;99254.10;;;8.68;100.00
45872;BME280;32333;55.844;-3.210;2023-08-08T03:06:44;99259.81;;;9.06;100.00
45872;BME280;32333;55.844;-3.210;2023-08-08T03:09:12;99251.74;;;9.56;100.00
45872;BME280;32333;55.844;-3.210;2023-08-08T03:11:39;99254.75;;;9.15;100.00
45872;BME280;32333;55.844;-3.210;2023-08-08T03:14:35;99252.84;;;9.54;100.00
45872;BME280;32333;55.844;-3.210;2023-08-08T03:17:03;99252.83;;;9.60;100.00
45872;BME280;32333;55.844;-3.210;2023-08-08T03:19:31;99251.32;;;9.05;100.00
45872;BME280;32333;55.844;-3.210;2023-08-08T03:21:59;99248.46;;;9.19;100.00
45872;BME280;32333;55.844;-3.210;2023-08-08T03:24:27;99257.24;;;9.02;100.00
45872;BME280;32333;55.844;-3.210;2023-08-08T03:26:54;99256.08;;;8.92;100.00
45872;BME280;32333;55.844;-3.210;2023-08-08T03:29:22;99257.08;;;9.06;100.00
45872;BME280;32333;55.844;-3.210;2023-08-08T03:31:49;99255.45;;;9.38;100.00
45872;BME280;32333;55.844;-3.210;2023-08-08T03:34:17;99248.42;;;9.80;100.00
45872;BME280;32333;55.844;-3.210;2023-08-08T03:36:44;99247.03;;;9.11;100.00
45872;BME280;32333;55.844;-3.210;2023-08-08T03:39:12;99246.88;;;9.47;100.00
45872;BME280;32333;55.844;-3.210;2023-08-08T03:41:39;99251.81;;;9.23;100.00
45872;BME280;32333;55.844;-3.210;2023-08-08T03:44:36;99246.70;;;8.64;100.00
45872;BME280;32333;55.844;-3.210;2023-08-08T03:47:03;99247.30;;;8.53;100.00
45872;BME280;32333;55.844;-3.210;2023-08-08T03:49:31;99251.73;;;8.73;100.00
45872;BME280;32333;55.844;-3.210;2023-08-08T03:51:59;99251.44;;;8.79;100.00
45872;BME280;32333;55.844;-3.210;2023-08-08T03:54:27;99248.39;;;9.25;100.00
45872;BME280;32333;55.844;-3.210;2023-08-08T03:56:54;99245.67;;;8.07;100.00
45872;BME280;32333;55.844;-3.210;2023-08-08T03:59:22;99237.59;;;8.78;100.00
45872;BME280;32333;55.844;-3.210;2023-08-08T04:01:50;99235.61;;;9.03;100.00
45872;BME280;32333;55.844;-3.210;2023-08-08T04:04:17;99237.76;;;8.21;100.00
45872;BME280;32333;55.844;-3.210;2023-08-08T04:06:45;99236.64;;;8.16;100.00
45872;BME280;32333;55.844;-3.210;2023-08-08T04:09:12;99238.92;;;9.21;100.00
45872;BME280;32333;55.844;-3.210;2023-08-08T04:11:41;99241.35;;;9.18;100.00
45872;BME280;32333;55.844;-3.210;2023-08-08T04:14:35;99240.33;;;9.24;100.00
45872;BME280;32333;55.844;-3.210;2023-08-08T04:17:03;99243.30;;;8.63;100.00
45872;BME280;32333;55.844;-3.210;2023-08-08T04:19:31;99244.46;;;8.26;100.00
45872;BME280;32333;55.844;-3.210;2023-08-08T04:21:59;99247.10;;;9.42;100.00
45872;BME280;32333;55.844;-3.210;2023-08-08T04:24:26;99246.89;;;9.00;100.00
45872;BME280;32333;55.844;-3.210;2023-08-08T04:26:54;99246.03;;;8.68;100.00
45872;BME280;32333;55.844;-3.210;2023-08-08T04:29:21;99246.52;;;8.50;100.00
45872;BME280;32333;55.844;-3.210;2023-08-08T04:31:49;99244.20;;;9.02;100.00
45872;BME280;32333;55.844;-3.210;2023-08-08T04:34:16;99241.42;;;9.29;100.00
45872;BME280;32333;55.844;-3.210;2023-08-08T04:36:43;99242.73;;;9.14;100.00
45872;BME280;32333;55.844;-3.210;2023-08-08T04:39:12;99237.80;;;8.73;100.00
45872;BME280;32333;55.844;-3.210;2023-08-08T04:41:39;99231.80;;;9.01;100.00
45872;BME280;32333;55.844;-3.210;2023-08-08T04:44:36;99227.67;;;8.90;100.00
45872;BME280;32333;55.844;-3.210;2023-08-08T04:47:04;99223.71;;;8.96;100.00
45872;BME280;32333;55.844;-3.210;2023-08-08T04:49:31;99224.88;;;9.16;100.00
45872;BME280;32333;55.844;-3.210;2023-08-08T04:52:00;99217.88;;;9.19;100.00
45872;BME280;32333;55.844;-3.210;2023-08-08T04:54:27;99214.29;;;8.87;100.00
45872;BME280;32333;55.844;-3.210;2023-08-08T04:56:54;99215.75;;;8.28;100.00
45872;BME280;32333;55.844;-3.210;2023-08-08T04:59:23;99212.90;;;8.76;100.00
45872;BME280;32333;55.844;-3.210;2023-08-08T05:01:51;99214.37;;;9.30;100.00
45872;BME280;32333;55.844;-3.210;2023-08-08T05:04:19;99210.56;;;8.55;100.00
45872;BME280;32333;55.844;-3.210;2023-08-08T05:06:47;99206.36;;;8.91;100.00
45872;BME280;32333;55.844;-3.210;2023-08-08T05:09:15;99208.65;;;8.73;100.00
45872;BME280;32333;55.844;-3.210;2023-08-08T05:11:42;99200.49;;;8.80;100.00
45872;BME280;32333;55.844;-3.210;2023-08-08T05:14:36;99200.07;;;8.66;100.00
45872;BME280;32333;55.844;-3.210;2023-08-08T05:17:03;99193.60;;;9.03;100.00
45872;BME280;32333;55.844;-3.210;2023-08-08T05:19:31;99192.83;;;9.27;100.00
45872;BME280;32333;55.844;-3.210;2023-08-08T05:21:59;99202.13;;;8.22;100.00
45872;BME280;32333;55.844;-3.210;2023-08-08T05:24:27;99199.84;;;9.39;100.00
45872;BME280;32333;55.844;-3.210;2023-08-08T05:26:54;99201.67;;;9.13;100.00
45872;BME280;32333;55.844;-3.210;2023-08-08T05:29:23;99189.05;;;9.15;100.00
45872;BME280;32333;55.844;-3.210;2023-08-08T05:31:51;99186.49;;;9.85;100.00
45872;BME280;32333;55.844;-3.210;2023-08-08T05:34:18;99187.36;;;9.39;100.00
45872;BME280;32333;55.844;-3.210;2023-08-08T05:36:46;99184.27;;;9.98;100.00
45872;BME280;32333;55.844;-3.210;2023-08-08T05:39:14;99183.31;;;9.97;100.00
45872;BME280;32333;55.844;-3.210;2023-08-08T05:41:41;99184.51;;;9.92;100.00
45872;BME280;32333;55.844;-3.210;2023-08-08T05:44:35;99187.33;;;10.05;100.00
45872;BME280;32333;55.844;-3.210;2023-08-08T05:47:03;99186.30;;;8.57;100.00
45872;BME280;32333;55.844;-3.210;2023-08-08T05:49:30;99191.01;;;8.89;100.00
45872;BME280;32333;55.844;-3.210;2023-08-08T05:51:58;99182.74;;;9.31;100.00
45872;BME280;32333;55.844;-3.210;2023-08-08T05:54:25;99186.91;;;9.19;100.00
45872;BME280;32333;55.844;-3.210;2023-08-08T05:56:53;99188.56;;;9.10;100.00
45872;BME280;32333;55.844;-3.210;2023-08-08T05:59:20;99196.93;;;8.82;100.00
45872;BME280;32333;55.844;-3.210;2023-08-08T06:01:47;99195.00;;;9.84;100.00
45872;BME280;32333;55.844;-3.210;2023-08-08T06:04:15;99197.51;;;9.90;100.00
45872;BME280;32333;55.844;-3.210;2023-08-08T06:06:42;99201.12;;;9.10;100.00
45872;BME280;32333;55.844;-3.210;2023-08-08T06:09:11;99197.61;;;9.57;100.00
45872;BME280;32333;55.844;-3.210;2023-08-08T06:11:39;99198.17;;;9.71;100.00
45872;BME280;32333;55.844;-3.210;2023-08-08T06:14:36;99196.73;;;9.87;100.00
45872;BME280;32333;55.844;-3.210;2023-08-08T06:17:04;99196.86;;;9.39;100.00
45872;BME280;32333;55.844;-3.210;2023-08-08T06:19:31;99194.79;;;9.22;100.00
45872;BME280;32333;55.844;-3.210;2023-08-08T06:22:00;99191.58;;;9.23;100.00
45872;BME280;32333;55.844;-3.210;2023-08-08T06:24:27;99188.06;;;10.43;100.00
45872;BME280;32333;55.844;-3.210;2023-08-08T06:26:54;99188.13;;;9.31;100.00
45872;BME280;32333;55.844;-3.210;2023-08-08T06:29:23;99179.91;;;11.05;100.00
45872;BME280;32333;55.844;-3.210;2023-08-08T06:31:50;99182.85;;;9.79;100.00
45872;BME280;32333;55.844;-3.210;2023-08-08T06:34:17;99184.76;;;10.11;100.00
45872;BME280;32333;55.844;-3.210;2023-08-08T06:36:44;99187.65;;;10.52;100.00
45872;BME280;32333;55.844;-3.210;2023-08-08T06:39:12;99190.05;;;11.19;100.00
45872;BME280;32333;55.844;-3.210;2023-08-08T06:41:39;99191.81;;;9.75;100.00
45872;BME280;32333;55.844;-3.210;2023-08-08T06:44:42;99193.27;;;9.99;100.00
45872;BME280;32333;55.844;-3.210;2023-08-08T06:47:11;99195.95;;;10.87;100.00
45872;BME280;32333;55.844;-3.210;2023-08-08T06:49:39;99197.22;;;11.64;100.00
45872;BME280;32333;55.844;-3.210;2023-08-08T06:52:07;99197.24;;;10.49;100.00
45872;BME280;32333;55.844;-3.210;2023-08-08T06:54:36;99199.24;;;10.06;100.00
45872;BME280;32333;55.844;-3.210;2023-08-08T06:57:04;99197.33;;;10.60;100.00
45872;BME280;32333;55.844;-3.210;2023-08-08T06:59:32;99195.46;;;10.32;100.00
45872;BME280;32333;55.844;-3.210;2023-08-08T07:01:59;99197.48;;;10.12;100.00
45872;BME280;32333;55.844;-3.210;2023-08-08T07:04:26;99200.79;;;10.97;100.00
45872;BME280;32333;55.844;-3.210;2023-08-08T07:06:54;99201.49;;;10.46;100.00
45872;BME280;32333;55.844;-3.210;2023-08-08T07:09:21;99203.80;;;11.16;100.00
45872;BME280;32333;55.844;-3.210;2023-08-08T07:11:48;99203.48;;;10.43;100.00
45872;BME280;32333;55.844;-3.210;2023-08-08T07:14:36;99206.23;;;10.38;100.00
45872;BME280;32333;55.844;-3.210;2023-08-08T07:17:03;99202.78;;;10.65;100.00
45872;BME280;32333;55.844;-3.210;2023-08-08T07:19:33;99196.48;;;11.13;100.00
45872;BME280;32333;55.844;-3.210;2023-08-08T07:22:01;99193.07;;;10.72;100.00
45872;BME280;32333;55.844;-3.210;2023-08-08T07:24:30;99188.04;;;11.12;100.00
45872;BME280;32333;55.844;-3.210;2023-08-08T07:27:16;99185.54;;;11.72;100.00
45872;BME280;32333;55.844;-3.210;2023-08-08T07:29:46;99190.69;;;10.93;100.00
45872;BME280;32333;55.844;-3.210;2023-08-08T07:33:25;99191.10;;;12.94;100.00
45872;BME280;32333;55.844;-3.210;2023-08-08T07:36:01;99189.04;;;11.96;100.00
45872;BME280;32333;55.844;-3.210;2023-08-08T07:38:48;99188.27;;;12.35;100.00
45872;BME280;32333;55.844;-3.210;2023-08-08T07:44:39;99182.77;;;14.54;100.00
45872;BME280;32333;55.844;-3.210;2023-08-08T07:47:15;99183.17;;;13.99;100.00
45872;BME280;32333;55.844;-3.210;2023-08-08T07:50:00;99184.06;;;14.16;100.00
45872;BME280;32333;55.844;-3.210;2023-08-08T07:58:43;99187.16;;;14.17;100.00
45872;BME280;32333;55.844;-3.210;2023-08-08T08:01:55;99192.45;;;13.76;100.00
45872;BME280;32333;55.844;-3.210;2023-08-08T08:04:23;99183.01;;;14.15;100.00
45872;BME280;32333;55.844;-3.210;2023-08-08T08:08:27;99178.50;;;13.62;100.00
45872;BME280;32333;55.844;-3.210;2023-08-08T08:11:04;99181.67;;;12.47;100.00
45872;BME280;32333;55.844;-3.210;2023-08-08T08:15:45;99177.92;;;14.54;100.00
45872;BME280;32333;55.844;-3.210;2023-08-08T08:20:36;99175.06;;;13.05;100.00
45872;BME280;32333;55.844;-3.210;2023-08-08T08:23:14;99173.61;;;14.51;100.00
45872;BME280;32333;55.844;-3.210;2023-08-08T08:25:54;99173.71;;;14.80;100.00
45872;BME280;32333;55.844;-3.210;2023-08-08T08:28:23;99173.22;;;15.50;100.00
45872;BME280;32333;55.844;-3.210;2023-08-08T08:30:52;99167.86;;;14.66;100.00
45872;BME280;32333;55.844;-3.210;2023-08-08T08:33:22;99166.57;;;15.81;100.00
45872;BME280;32333;55.844;-3.210;2023-08-08T08:35:54;99169.20;;;15.47;100.00
45872;BME280;32333;55.844;-3.210;2023-08-08T08:39:56;99172.37;;;15.11;100.00
45872;BME280;32333;55.844;-3.210;2023-08-08T08:45:30;99164.63;;;15.75;100.00
45872;BME280;32333;55.844;-3.210;2023-08-08T08:48:00;99163.03;;;15.67;100.00
45872;BME280;32333;55.844;-3.210;2023-08-08T08:50:31;99164.82;;;15.94;100.00
45872;BME280;32333;55.844;-3.210;2023-08-08T08:53:00;99155.70;;;15.68;100.00
45872;BME280;32333;55.844;-3.210;2023-08-08T08:55:29;99157.09;;;15.65;100.00
45872;BME280;32333;55.844;-3.210;2023-08-08T08:57:57;99148.56;;;16.16;100.00
45872;BME280;32333;55.844;-3.210;2023-08-08T09:00:25;99147.36;;;16.16;100.00
45872;BME280;32333;55.844;-3.210;2023-08-08T09:03:07;99151.04;;;17.58;100.00
45872;BME280;32333;55.844;-3.210;2023-08-08T09:05:39;99141.85;;;16.84;98.68
45872;BME280;32333;55.844;-3.210;2023-08-08T09:08:12;99143.70;;;17.23;97.85
45872;BME280;32333;55.844;-3.210;2023-08-08T09:10:42;99141.37;;;17.56;96.83
45872;BME280;32333;55.844;-3.210;2023-08-08T09:14:40;99147.29;;;17.30;98.24
45872;BME280;32333;55.844;-3.210;2023-08-08T09:17:17;99144.84;;;16.88;100.00
45872;BME280;32333;55.844;-3.210;2023-08-08T09:19:46;99146.22;;;17.68;98.30
45872;BME280;32333;55.844;-3.210;2023-08-08T09:22:23;99141.49;;;18.62;90.20
45872;BME280;32333;55.844;-3.210;2023-08-08T09:26:40;99139.40;;;16.74;98.66
45872;BME280;32333;55.844;-3.210;2023-08-08T09:47:14;99158.50;;;16.09;100.00
45872;BME280;32333;55.844;-3.210;2023-08-08T09:52:28;99159.76;;;14.39;100.00
45872;BME280;32333;55.844;-3.210;2023-08-08T09:55:08;99156.93;;;15.20;100.00
45872;BME280;32333;55.844;-3.210;2023-08-08T09:57:43;99151.08;;;15.99;100.00
45872;BME280;32333;55.844;-3.210;2023-08-08T10:00:24;99149.58;;;15.24;100.00
45872;BME280;32333;55.844;-3.210;2023-08-08T10:02:54;99146.62;;;15.78;100.00
45872;BME280;32333;55.844;-3.210;2023-08-08T10:05:27;99142.25;;;15.13;100.00
45872;BME280;32333;55.844;-3.210;2023-08-08T10:07:54;99143.98;;;15.56;100.00
45872;BME280;32333;55.844;-3.210;2023-08-08T10:10:22;99144.44;;;15.37;100.00
45872;BME280;32333;55.844;-3.210;2023-08-08T10:14:37;99148.14;;;15.24;100.00
45872;BME280;32333;55.844;-3.210;2023-08-08T10:17:06;99150.33;;;13.83;100.00
45872;BME280;32333;55.844;-3.210;2023-08-08T10:19:36;99154.98;;;16.02;100.00
45872;BME280;32333;55.844;-3.210;2023-08-08T10:22:06;99152.74;;;14.53;100.00
45872;BME280;32333;55.844;-3.210;2023-08-08T10:24:35;99155.64;;;15.28;100.00
45872;BME280;32333;55.844;-3.210;2023-08-08T10:27:04;99150.38;;;13.47;100.00
45872;BME280;32333;55.844;-3.210;2023-08-08T10:29:33;99153.67;;;14.90;100.00
45872;BME280;32333;55.844;-3.210;2023-08-08T10:32:03;99153.17;;;15.45;100.00
45872;BME280;32333;55.844;-3.210;2023-08-08T10:34:41;99153.99;;;15.44;100.00
45872;BME280;32333;55.844;-3.210;2023-08-08T10:37:10;99148.85;;;15.43;100.00
45872;BME280;32333;55.844;-3.210;2023-08-08T10:39:50;99147.96;;;15.16;100.00
45872;BME280;32333;55.844;-3.210;2023-08-08T10:44:41;99149.56;;;15.97;100.00
45872;BME280;32333;55.844;-3.210;2023-08-08T10:47:11;99144.63;;;16.23;100.00
45872;BME280;32333;55.844;-3.210;2023-08-08T10:49:42;99138.40;;;16.02;100.00
45872;BME280;32333;55.844;-3.210;2023-08-08T10:52:14;99140.97;;;16.41;100.00
45872;BME280;32333;55.844;-3.210;2023-08-08T10:54:52;99135.49;;;16.43;100.00
45872;BME280;32333;55.844;-3.210;2023-08-08T10:57:24;99133.57;;;16.96;99.38
45872;BME280;32333;55.844;-3.210;2023-08-08T10:59:52;99137.21;;;16.94;98.17
45872;BME280;32333;55.844;-3.210;2023-08-08T11:02:21;99137.66;;;16.37;100.00
45872;BME280;32333;55.844;-3.210;2023-08-08T11:04:53;99131.61;;;16.27;97.48
45872;BME280;32333;55.844;-3.210;2023-08-08T11:07:23;99126.15;;;15.32;100.00
45872;BME280;32333;55.844;-3.210;2023-08-08T11:09:54;99120.95;;;17.42;97.61
45872;BME280;32333;55.844;-3.210;2023-08-08T11:14:36;99121.25;;;17.36;98.25
45872;BME280;32333;55.844;-3.210;2023-08-08T11:17:05;99115.27;;;16.75;100.00
45872;BME280;32333;55.844;-3.210;2023-08-08T11:19:41;99111.54;;;16.53;100.00
45872;BME280;32333;55.844;-3.210;2023-08-08T11:22:21;99114.03;;;17.11;100.00
45872;BME280;32333;55.844;-3.210;2023-08-08T11:24:51;99104.02;;;17.39;98.54
45872;BME280;32333;55.844;-3.210;2023-08-08T11:28:50;99102.62;;;18.57;92.96
45872;BME280;32333;55.844;-3.210;2023-08-08T11:31:18;99112.58;;;16.67;94.85
45872;BME280;32333;55.844;-3.210;2023-08-08T11:33:47;99108.92;;;17.33;91.91
45872;BME280;32333;55.844;-3.210;2023-08-08T11:36:20;99099.85;;;17.69;90.73
45872;BME280;32333;55.844;-3.210;2023-08-08T11:41:16;99108.53;;;16.10;99.14
45872;BME280;32333;55.844;-3.210;2023-08-08T11:44:40;99109.22;;;15.78;100.00
45872;BME280;32333;55.844;-3.210;2023-08-08T11:47:09;99113.79;;;16.90;100.00
45872;BME280;32333;55.844;-3.210;2023-08-08T11:49:45;99106.50;;;16.42;100.00
45872;BME280;32333;55.844;-3.210;2023-08-08T11:52:19;99103.06;;;16.55;100.00
45872;BME280;32333;55.844;-3.210;2023-08-08T11:54:53;99094.79;;;17.36;93.24
45872;BME280;32333;55.844;-3.210;2023-08-08T11:57:23;99089.24;;;17.07;93.52
45872;BME280;32333;55.844;-3.210;2023-08-08T11:59:53;99083.77;;;17.81;88.98
45872;BME280;32333;55.844;-3.210;2023-08-08T12:02:25;99083.03;;;17.25;88.31
45872;BME280;32333;55.844;-3.210;2023-08-08T12:04:53;99080.37;;;18.29;80.90
45872;BME280;32333;55.844;-3.210;2023-08-08T12:07:23;99079.84;;;18.53;81.54
45872;BME280;32333;55.844;-3.210;2023-08-08T12:09:53;99084.05;;;16.63;82.70
45872;BME280;32333;55.844;-3.210;2023-08-08T12:14:38;99073.49;;;18.23;77.31
45872;BME280;32333;55.844;-3.210;2023-08-08T12:17:06;99069.77;;;18.35;73.35
45872;BME280;32333;55.844;-3.210;2023-08-08T12:21:13;99058.60;;;17.73;71.73
45872;BME280;32333;55.844;-3.210;2023-08-08T12:30:02;99066.51;;;17.63;79.81
45872;BME280;32333;55.844;-3.210;2023-08-08T12:32:30;99067.42;;;17.36;79.50
45872;BME280;32333;55.844;-3.210;2023-08-08T12:35:01;99060.42;;;17.37;79.31
45872;BME280;32333;55.844;-3.210;2023-08-08T12:37:29;99061.66;;;18.20;73.05
45872;BME280;32333;55.844;-3.210;2023-08-08T12:39:57;99063.05;;;18.20;73.12
45872;BME280;32333;55.844;-3.210;2023-08-08T12:44:35;99068.36;;;17.00;80.71
45872;BME280;32333;55.844;-3.210;2023-08-08T12:47:03;99059.78;;;18.08;77.55
45872;BME280;32333;55.844;-3.210;2023-08-08T13:08:06;99071.69;;;18.06;78.02
45872;BME280;32333;55.844;-3.210;2023-08-08T13:10:34;99074.80;;;17.15;78.31
45872;BME280;32333;55.844;-3.210;2023-08-08T13:14:35;99077.12;;;17.69;76.56
45872;BME280;32333;55.844;-3.210;2023-08-08T13:17:03;99079.83;;;16.51;81.76
45872;BME280;32333;55.844;-3.210;2023-08-08T13:19:33;99080.00;;;17.30;79.81
45872;BME280;32333;55.844;-3.210;2023-08-08T13:22:02;99073.14;;;17.92;78.49
45872;BME280;32333;55.844;-3.210;2023-08-08T13:24:29;99072.06;;;18.22;75.76
45872;BME280;32333;55.844;-3.210;2023-08-08T13:26:57;99062.21;;;17.59;79.38
45872;BME280;32333;55.844;-3.210;2023-08-08T13:29:24;99060.99;;;17.80;76.69
45872;BME280;32333;55.844;-3.210;2023-08-08T13:31:53;99063.61;;;16.88;77.68
45872;BME280;32333;55.844;-3.210;2023-08-08T13:35:54;99059.58;;;17.52;83.73
45872;BME280;32333;55.844;-3.210;2023-08-08T13:38:23;99053.21;;;17.43;78.80
45872;BME280;32333;55.844;-3.210;2023-08-08T13:40:51;99058.89;;;17.12;82.01
45872;BME280;32333;55.844;-3.210;2023-08-08T13:44:36;99056.37;;;16.93;82.88
45872;BME280;32333;55.844;-3.210;2023-08-08T13:47:04;99062.61;;;16.66;82.32
45872;BME280;32333;55.844;-3.210;2023-08-08T13:49:31;99067.00;;;17.08;76.55
45872;BME280;32333;55.844;-3.210;2023-08-08T13:51:58;99063.28;;;17.10;81.23
45872;BME280;32333;55.844;-3.210;2023-08-08T13:54:26;99055.36;;;17.79;79.55
45872;BME280;32333;55.844;-3.210;2023-08-08T13:56:53;99054.22;;;17.84;77.87
45872;BME280;32333;55.844;-3.210;2023-08-08T13:59:21;99056.86;;;18.95;75.89
45872;BME280;32333;55.844;-3.210;2023-08-08T14:01:49;99050.66;;;17.52;76.68
45872;BME280;32333;55.844;-3.210;2023-08-08T14:04:16;99054.66;;;18.45;72.42
45872;BME280;32333;55.844;-3.210;2023-08-08T14:06:45;99059.85;;;17.88;72.40
45872;BME280;32333;55.844;-3.210;2023-08-08T14:09:12;99064.87;;;17.93;72.69
45872;BME280;32333;55.844;-3.210;2023-08-08T14:11:39;99058.54;;;17.65;75.04
45872;BME280;32333;55.844;-3.210;2023-08-08T14:14:35;99056.88;;;16.94;79.02
45872;BME280;32333;55.844;-3.210;2023-08-08T14:17:02;99055.57;;;16.88;78.59
45872;BME280;32333;55.844;-3.210;2023-08-08T14:19:30;99052.15;;;17.16;79.36
45872;BME280;32333;55.844;-3.210;2023-08-08T14:21:58;99060.83;;;16.65;79.65
45872;BME280;32333;55.844;-3.210;2023-08-08T14:24:25;99060.68;;;16.34;75.92
45872;BME280;32333;55.844;-3.210;2023-08-08T14:26:52;99057.13;;;16.88;73.68
45872;BME280;32333;55.844;-3.210;2023-08-08T14:29:20;99055.26;;;16.82;74.25
45872;BME280;32333;55.844;-3.210;2023-08-08T14:31:48;99042.23;;;17.06;72.12
45872;BME280;32333;55.844;-3.210;2023-08-08T14:34:15;99049.56;;;17.12;74.83
45872;BME280;32333;55.844;-3.210;2023-08-08T14:36:42;99046.75;;;17.25;74.30
45872;BME280;32333;55.844;-3.210;2023-08-08T14:39:09;99044.56;;;17.91;72.83